Time;durP1;ratioP1;P1;durP2;ratioP2;P2;SDS_P1;SDS_P2;PMS_P1;PMS_P2;Temp;Humidity;BMP_temperature;BMP_pressure;BME280_temperature;BME280_humidity;BME280_pressure;Samples;Min_cycle;Max_cycle;Signal;HPM_P1;HPM_P2
2022/03/06 00:01:39;;;;;;;30.52;20.80;;;;;;;1.31;77.30;94489.09;5065325;28;20032;-72
2022/03/06 00:04:04;;;;;;;30.83;19.17;;;;;;;1.33;77.07;94489.00;5073421;28;20028;-72
2022/03/06 00:06:30;;;;;;;30.75;20.55;;;;;;;1.34;76.97;94493.22;5072391;28;20036;-72
2022/03/06 00:08:55;;;;;;;29.77;19.60;;;;;;;1.37;76.90;94495.63;5090136;28;20032;-72
2022/03/06 00:11:20;;;;;;;28.98;20.13;;;;;;;1.36;76.89;94490.56;5091404;28;20032;-72
2022/03/06 00:13:46;;;;;;;29.35;20.83;;;;;;;1.36;76.88;94481.16;5087712;28;20024;-71
2022/03/06 00:16:11;;;;;;;32.15;22.45;;;;;;;1.36;76.69;94480.34;5090418;28;20024;-72
2022/03/06 00:18:37;;;;;;;30.40;20.45;;;;;;;1.37;77.29;94487.94;5090359;28;20036;-72
2022/03/06 00:21:04;;;;;;;37.88;23.98;;;;;;;1.39;76.86;94488.66;5072597;28;20567;-72
2022/03/06 00:23:29;;;;;;;36.30;22.83;;;;;;;1.43;76.91;94491.91;5088154;28;20539;-72
2022/03/06 00:25:54;;;;;;;36.17;23.80;;;;;;;1.40;76.93;94487.78;5053027;28;20262;-72
2022/03/06 00:28:20;;;;;;;33.63;23.27;;;;;;;1.40;76.68;94487.78;5069424;28;20044;-71
2022/03/06 00:30:47;;;;;;;31.83;23.15;;;;;;;1.41;76.97;94493.72;5051659;28;20032;-72
2022/03/06 00:33:12;;;;;;;34.00;22.92;;;;;;;1.41;76.61;94489.41;5069860;28;20036;-72
2022/03/06 00:35:38;;;;;;;33.13;22.48;;;;;;;1.41;76.26;94484.31;5068460;28;20089;-72
2022/03/06 00:38:03;;;;;;;31.88;20.73;;;;;;;1.38;76.39;94481.91;5069176;28;20464;-73
2022/03/06 00:40:29;;;;;;;27.80;19.50;;;;;;;1.39;76.64;94478.44;5069418;28;20044;-72
2022/03/06 00:42:54;;;;;;;27.15;19.08;;;;;;;1.41;76.56;94478.38;5052099;28;20036;-72
2022/03/06 00:45:19;;;;;;;26.35;18.58;;;;;;;1.38;76.47;94473.41;5066577;28;20032;-72
2022/03/06 00:47:45;;;;;;;25.33;18.75;;;;;;;1.33;76.77;94469.34;5052960;28;20506;-73
2022/03/06 00:50:10;;;;;;;26.27;17.63;;;;;;;1.33;76.83;94477.03;5068310;28;20036;-73
2022/03/06 00:52:37;;;;;;;22.42;15.82;;;;;;;1.33;77.19;94468.53;5077151;28;20020;-73
2022/03/06 00:55:03;;;;;;;19.88;15.93;;;;;;;1.36;76.81;94464.97;5072078;28;20094;-73
2022/03/06 00:57:28;;;;;;;20.92;15.25;;;;;;;1.31;77.04;94449.88;5068492;28;20473;-73
2022/03/06 00:59:54;;;;;;;21.17;13.98;;;;;;;1.34;76.76;94460.78;5069018;28;20039;-73
2022/03/06 01:02:19;;;;;;;18.77;14.30;;;;;;;1.30;76.79;94461.00;5069436;28;20025;-73
2022/03/06 01:04:44;;;;;;;20.65;14.60;;;;;;;1.27;76.95;94461.16;5087616;28;20490;-72
2022/03/06 01:07:10;;;;;;;19.45;13.75;;;;;;;1.27;77.32;94456.06;5090481;28;20100;-73
2022/03/06 01:09:35;;;;;;;22.50;14.05;;;;;;;1.23;77.32;94460.50;5089340;28;20093;-73
2022/03/06 01:12:01;;;;;;;21.17;14.38;;;;;;;1.27;77.25;94456.88;5088629;28;20116;-73
2022/03/06 01:14:26;;;;;;;19.08;13.38;;;;;;;1.30;77.08;94455.88;5090867;28;20047;-72
2022/03/06 01:16:52;;;;;;;18.88;13.85;;;;;;;1.26;76.97;94447.56;5071683;28;20085;-72
2022/03/06 01:19:17;;;;;;;18.30;13.43;;;;;;;1.29;77.43;94449.13;5069374;28;20501;-73
2022/03/06 01:21:43;;;;;;;17.90;12.65;;;;;;;1.31;76.79;94448.16;5090415;28;20510;-73
2022/03/06 01:24:08;;;;;;;18.10;12.32;;;;;;;1.30;77.22;94450.75;5090607;28;20035;-73
2022/03/06 01:26:34;;;;;;;16.52;12.80;;;;;;;1.31;77.21;94448.16;5082936;28;20465;-73
2022/03/06 01:28:59;;;;;;;18.13;12.88;;;;;;;1.27;76.91;94444.06;5089250;28;20069;-72
2022/03/06 01:31:24;;;;;;;17.83;11.68;;;;;;;1.24;77.08;94441.69;5089670;28;20039;-73
2022/03/06 01:33:50;;;;;;;19.10;12.30;;;;;;;1.28;77.53;94442.34;5088739;28;20040;-72
2022/03/06 01:36:15;;;;;;;19.52;12.32;;;;;;;1.27;76.95;94446.63;5070481;28;20036;-73
2022/03/06 01:38:41;;;;;;;18.08;12.30;;;;;;;1.28;77.06;94443.19;5068627;28;20503;-73
2022/03/06 01:41:06;;;;;;;22.92;14.30;;;;;;;1.27;77.24;94433.00;5070625;28;20028;-73
2022/03/06 01:43:32;;;;;;;22.13;13.18;;;;;;;1.25;77.14;94432.25;5052822;28;20032;-72
2022/03/06 01:45:57;;;;;;;23.17;14.65;;;;;;;1.24;77.24;94430.63;5071687;28;20044;-73
2022/03/06 01:48:23;;;;;;;21.45;13.05;;;;;;;1.29;77.12;94438.88;5074633;28;20487;-72
2022/03/06 01:50:48;;;;;;;20.85;14.15;;;;;;;1.27;76.92;94430.47;5073474;28;20036;-73
2022/03/06 01:53:13;;;;;;;21.67;13.70;;;;;;;1.28;77.72;94438.06;5073494;28;20036;-72
2022/03/06 01:55:39;;;;;;;18.05;12.18;;;;;;;1.29;77.27;94434.59;5086776;28;20028;-73
2022/03/06 01:58:06;;;;;;;19.90;13.20;;;;;;;1.15;77.72;94429.38;5076707;28;20043;-73
2022/03/06 02:00:39;;;;;;;19.05;12.07;;;;;;;1.15;77.24;94437.06;5076787;28;20035;-72
2022/03/06 02:03:04;;;;;;;9.32;7.10;;;;;;;1.12;76.30;94429.53;5077124;28;20417;-73
2022/03/06 02:05:30;;;;;;;12.65;8.75;;;;;;;1.07;76.80;94423.81;5091495;28;20036;-72
2022/03/06 02:07:55;;;;;;;12.10;8.80;;;;;;;1.06;77.60;94429.84;5075055;28;20040;-73
2022/03/06 02:10:21;;;;;;;11.18;8.00;;;;;;;1.04;77.83;94417.13;5074290;28;20029;-72
2022/03/06 02:12:46;;;;;;;11.60;8.52;;;;;;;1.11;77.73;94425.31;5074205;28;20028;-73
2022/03/06 02:15:13;;;;;;;10.90;8.73;;;;;;;1.12;77.27;94424.41;5072806;28;20430;-73
2022/03/06 02:17:38;;;;;;;8.73;6.95;;;;;;;1.07;76.95;94419.53;5073007;28;20025;-73
2022/03/06 02:20:11;;;;;;;8.93;6.53;;;;;;;1.10;77.33;94423.66;5072945;28;20467;-73
2022/03/06 02:22:38;;;;;;;8.38;6.35;;;;;;;1.12;77.12;94432.09;5074146;28;20075;-72
2022/03/06 02:25:06;;;;;;;8.48;6.70;;;;;;;1.10;76.83;94419.38;5073615;28;20028;-73
2022/03/06 02:27:31;;;;;;;7.90;5.70;;;;;;;1.16;76.37;94418.22;5093089;28;20486;-72
2022/03/06 02:29:57;;;;;;;9.32;7.30;;;;;;;1.21;75.94;94421.38;5076042;28;20156;-72
2022/03/06 02:32:23;;;;;;;8.27;6.85;;;;;;;1.24;75.95;94413.53;5094057;28;20027;-73
2022/03/06 02:34:50;;;;;;;10.38;7.60;;;;;;;1.27;76.25;94415.91;5076244;28;20028;-73
2022/03/06 02:37:18;;;;;;;11.23;7.70;;;;;;;1.25;76.31;94420.28;5076066;28;20038;-72
2022/03/06 02:39:44;;;;;;;9.23;6.95;;;;;;;1.32;75.53;94429.31;5075846;28;20040;-73
2022/03/06 02:42:10;;;;;;;6.25;5.43;;;;;;;1.32;74.79;94425.94;5093983;28;20541;-73
2022/03/06 02:44:35;;;;;;;6.57;5.55;;;;;;;1.29;75.34;94428.66;5074161;28;20039;-73
2022/03/06 02:47:01;;;;;;;7.07;6.03;;;;;;;1.29;75.13;94421.78;5077103;28;20464;-73
2022/03/06 02:49:26;;;;;;;6.88;5.15;;;;;;;1.32;75.05;94433.59;5072439;28;20025;-73
2022/03/06 02:51:52;;;;;;;6.97;5.28;;;;;;;1.37;75.19;94429.06;5072223;28;20037;-72
2022/03/06 02:54:17;;;;;;;7.28;6.28;;;;;;;1.33;76.06;94427.56;5082988;28;20024;-73
2022/03/06 02:56:43;;;;;;;6.93;5.82;;;;;;;1.36;76.21;94426.59;5092009;28;20080;-73
2022/03/06 02:59:09;;;;;;;6.57;5.47;;;;;;;1.33;75.91;94423.28;5058295;28;20032;-73
2022/03/06 03:01:43;;;;;;;6.53;5.25;;;;;;;1.32;75.81;94438.72;5092374;28;20513;-73
2022/03/06 03:04:09;;;;;;;6.38;5.13;;;;;;;1.36;74.54;94439.38;5076770;28;20483;-73
2022/03/06 03:06:34;;;;;;;7.32;5.50;;;;;;;1.28;75.30;94432.09;5067239;28;20037;-73
2022/03/06 03:09:00;;;;;;;6.50;5.65;;;;;;;1.30;76.05;94428.56;5072107;28;20028;-73
2022/03/06 03:11:25;;;;;;;6.80;5.00;;;;;;;1.25;75.84;94427.97;5073182;28;20032;-73
2022/03/06 03:13:51;;;;;;;6.43;5.07;;;;;;;1.35;75.22;94428.31;5071800;28;20036;-73
2022/03/06 03:16:16;;;;;;;5.93;4.85;;;;;;;1.36;74.96;94439.38;5088670;28;20040;-73
2022/03/06 03:18:41;;;;;;;5.05;4.10;;;;;;;1.39;74.31;94434.91;5073160;28;20032;-72
2022/03/06 03:21:07;;;;;;;5.63;4.85;;;;;;;1.37;74.28;94430.81;5073020;28;20036;-73
2022/03/06 03:23:32;;;;;;;5.55;4.63;;;;;;;1.38;75.60;94447.81;5073213;28;20407;-73
2022/03/06 03:25:58;;;;;;;5.72;4.88;;;;;;;1.36;75.94;94439.38;5083163;28;20414;-73
2022/03/06 03:28:23;;;;;;;5.93;4.50;;;;;;;1.32;75.67;94434.44;5091897;28;20490;-73
2022/03/06 03:30:48;;;;;;;5.13;4.43;;;;;;;1.32;75.48;94426.75;5093012;28;20039;-73
2022/03/06 03:33:14;;;;;;;6.22;5.20;;;;;;;1.40;75.71;94435.78;5092841;28;20028;-72
2022/03/06 03:35:39;;;;;;;5.32;4.18;;;;;;;1.37;75.82;94436.75;5091777;28;20028;-73
2022/03/06 03:38:05;;;;;;;5.50;4.22;;;;;;;1.39;75.86;94439.22;5074634;28;20027;-73
2022/03/06 03:40:30;;;;;;;6.00;4.70;;;;;;;1.40;75.86;94444.28;5091618;28;20069;-73
2022/03/06 03:42:56;;;;;;;5.65;4.72;;;;;;;1.43;75.53;94450.97;5092926;28;20475;-73
2022/03/06 03:45:21;;;;;;;6.22;5.03;;;;;;;1.35;76.00;94430.88;5070287;28;20525;-72
2022/03/06 03:47:47;;;;;;;5.45;4.80;;;;;;;1.40;76.52;94446.81;5071248;28;20032;-73
2022/03/06 03:50:12;;;;;;;5.63;4.93;;;;;;;1.40;76.55;94451.13;5071210;28;20486;-73
2022/03/06 03:52:37;;;;;;;5.93;5.05;;;;;;;1.37;76.24;94453.84;5072458;28;20032;-73
2022/03/06 03:55:03;;;;;;;5.93;4.93;;;;;;;1.37;76.63;94441.06;5080015;28;20064;-73
2022/03/06 03:57:29;;;;;;;6.63;5.53;;;;;;;1.36;76.18;94453.00;5070982;28;20055;-73
2022/03/06 03:59:54;;;;;;;7.07;5.45;;;;;;;1.23;76.75;94454.56;5072264;28;20029;-73
2022/03/06 04:02:19;;;;;;;6.82;5.72;;;;;;;1.24;76.84;94456.22;5073356;28;20490;-72
2022/03/06 04:04:45;;;;;;;6.82;5.53;;;;;;;1.20;77.00;94447.03;5091297;28;20028;-72
2022/03/06 04:07:10;;;;;;;7.35;6.22;;;;;;;1.14;77.48;94448.16;5091077;28;20028;-73
2022/03/06 04:09:36;;;;;;;7.13;5.75;;;;;;;1.20;77.65;94455.56;5092280;28;20032;-72
2022/03/06 04:12:01;;;;;;;6.72;5.80;;;;;;;1.22;77.84;94458.00;5092171;28;20044;-73
2022/03/06 04:14:27;;;;;;;5.85;4.43;;;;;;;1.06;76.57;94451.16;5091190;28;20026;-73
2022/03/06 04:16:52;;;;;;;8.55;6.40;;;;;;;1.03;77.43;94450.47;5085763;28;20419;-73
2022/03/06 04:19:18;;;;;;;8.40;5.80;;;;;;;1.04;77.68;94449.56;5072291;28;20040;-73
2022/03/06 04:21:43;;;;;;;6.75;5.55;;;;;;;1.07;77.58;94447.66;5071760;28;20025;-73
2022/03/06 04:24:09;;;;;;;7.22;6.00;;;;;;;1.05;77.58;94454.59;5070690;28;20036;-73
2022/03/06 04:26:34;;;;;;;7.82;6.03;;;;;;;1.07;77.98;94454.53;5057835;28;20039;-73
2022/03/06 04:29:00;;;;;;;11.63;8.15;;;;;;;1.14;77.64;94460.13;5070504;28;20532;-73
2022/03/06 04:31:25;;;;;;;8.63;6.28;;;;;;;1.13;77.26;94445.72;5071585;28;20487;-72
2022/03/06 04:33:51;;;;;;;7.93;6.13;;;;;;;1.14;77.08;94444.78;5053961;28;20497;-73
2022/03/06 04:36:16;;;;;;;6.45;5.45;;;;;;;1.15;77.52;94447.28;5073582;28;20032;-73
2022/03/06 04:38:41;;;;;;;7.78;6.05;;;;;;;1.07;77.32;94441.72;5090446;28;20048;-73
2022/03/06 04:41:07;;;;;;;3.63;2.83;;;;;;;1.24;76.14;94463.88;5091641;28;20039;-73
2022/03/06 04:43:32;;;;;;;6.22;4.90;;;;;;;1.28;76.14;94457.69;5091932;28;20032;-73
2022/03/06 04:45:58;;;;;;;6.25;4.88;;;;;;;1.27;75.99;94463.72;5090349;28;20035;-73
2022/03/06 04:48:23;;;;;;;7.25;6.32;;;;;;;1.27;76.92;94456.06;5056732;28;20043;-73
2022/03/06 04:50:48;;;;;;;8.65;6.07;;;;;;;1.26;76.96;94465.47;5071407;28;20078;-73
2022/03/06 04:53:14;;;;;;;16.55;9.68;;;;;;;1.21;77.14;94454.63;5070067;28;20383;-73
2022/03/06 04:55:39;;;;;;;9.60;7.10;;;;;;;1.28;77.27;94470.50;5070092;28;20028;-73
2022/03/06 04:58:05;;;;;;;7.75;5.75;;;;;;;1.19;76.33;94450.50;5071530;28;20028;-73
2022/03/06 05:00:30;;;;;;;7.85;5.90;;;;;;;1.26;77.29;94464.66;5071127;28;20028;-72
2022/03/06 05:02:56;;;;;;;5.15;4.00;;;;;;;1.26;75.69;94475.69;5087443;28;20089;-73
2022/03/06 05:05:21;;;;;;;3.70;2.90;;;;;;;1.10;75.57;94467.97;5090095;28;20039;-73
2022/03/06 05:07:47;;;;;;;10.82;6.63;;;;;;;1.01;74.59;94459.97;5077900;28;20024;-73
2022/03/06 05:10:12;;;;;;;3.08;2.47;;;;;;;0.91;74.96;94466.44;5070956;28;20033;-73
2022/03/06 05:12:38;;;;;;;3.90;2.95;;;;;;;0.91;75.27;94471.56;5059664;28;20548;-73
2022/03/06 05:15:05;;;;;;;3.50;2.70;;;;;;;0.95;75.38;94471.34;5061921;28;20036;-73
2022/03/06 05:17:30;;;;;;;3.42;2.95;;;;;;;1.00;75.53;94471.09;5045835;28;20027;-72
2022/03/06 05:19:55;;;;;;;3.78;3.00;;;;;;;1.05;75.92;94481.91;5044577;28;20037;-73
2022/03/06 05:22:21;;;;;;;2.80;2.47;;;;;;;1.05;75.26;94467.38;5073545;28;20039;-73
2022/03/06 05:24:46;;;;;;;2.97;2.38;;;;;;;1.11;75.08;94469.66;5088725;28;20040;-73
2022/03/06 05:27:12;;;;;;;3.13;2.45;;;;;;;1.13;75.23;94466.19;5087980;28;20390;-73
2022/03/06 05:29:37;;;;;;;2.97;2.38;;;;;;;1.18;74.59;94480.38;5085840;28;20513;-73
2022/03/06 05:32:03;;;;;;;3.10;2.63;;;;;;;1.03;74.25;94469.22;5088663;28;20028;-73
2022/03/06 05:34:28;;;;;;;3.38;2.38;;;;;;;1.12;74.62;94470.47;5079283;28;20109;-73
2022/03/06 05:36:54;;;;;;;3.75;2.72;;;;;;;1.06;74.68;94476.72;5056855;28;20050;-73
2022/03/06 05:39:19;;;;;;;3.40;2.72;;;;;;;1.13;74.60;94481.53;5067373;28;20438;-73
2022/03/06 05:41:45;;;;;;;3.70;2.80;;;;;;;1.13;75.10;94484.91;5089094;28;20468;-73
2022/03/06 05:44:10;;;;;;;3.72;2.80;;;;;;;1.17;75.32;94486.41;5089246;28;20040;-73
2022/03/06 05:46:36;;;;;;;3.35;2.58;;;;;;;1.17;74.87;94483.88;5087141;28;20062;-72
2022/03/06 05:49:01;;;;;;;3.42;2.78;;;;;;;1.18;75.64;94472.72;5089867;28;20039;-73
2022/03/06 05:51:27;;;;;;;3.33;2.45;;;;;;;1.22;75.90;94484.44;5089593;28;20039;-73
2022/03/06 05:53:52;;;;;;;3.13;2.60;;;;;;;1.24;75.13;94482.63;5081368;28;20028;-73
2022/03/06 05:56:18;;;;;;;3.10;2.40;;;;;;;1.22;75.08;94473.38;5069214;28;20037;-73
2022/03/06 05:58:43;;;;;;;3.20;2.30;;;;;;;1.29;75.10;94475.53;5052703;28;20033;-73
2022/03/06 06:01:08;;;;;;;3.47;2.75;;;;;;;1.30;75.45;94482.31;5070521;28;20029;-73
2022/03/06 06:03:34;;;;;;;3.20;2.40;;;;;;;1.16;75.71;94459.16;5069266;28;20055;-73
2022/03/06 06:05:59;;;;;;;3.53;2.67;;;;;;;1.29;75.86;94485.78;5070418;28;20028;-73
2022/03/06 06:08:25;;;;;;;3.88;2.78;;;;;;;1.20;75.26;94477.72;5069296;28;20090;-73
2022/03/06 06:10:50;;;;;;;4.03;2.70;;;;;;;1.18;74.13;94472.72;5069123;28;20534;-73
2022/03/06 06:13:19;;;;;;;3.13;2.33;;;;;;;1.17;73.69;94483.88;5070663;28;20275;-73
2022/03/06 06:15:44;;;;;;;3.50;2.60;;;;;;;1.22;73.20;94479.31;5069017;28;20041;-73
2022/03/06 06:18:10;;;;;;;3.78;2.97;;;;;;;1.24;74.56;94492.84;5070238;28;20033;-74
2022/03/06 06:20:36;;;;;;;3.92;2.78;;;;;;;1.23;74.47;94487.84;5070012;28;20445;-74
2022/03/06 06:23:03;;;;;;;3.72;2.75;;;;;;;1.19;72.99;94486.31;5075150;28;20024;-74
2022/03/06 06:25:28;;;;;;;3.92;2.70;;;;;;;1.08;73.67;94492.00;5067368;28;20024;-74
2022/03/06 06:27:53;;;;;;;4.03;2.47;;;;;;;1.14;73.41;94496.78;5064410;28;20082;-73
2022/03/06 06:30:19;;;;;;;3.75;2.60;;;;;;;1.13;73.37;94494.31;5074322;28;20032;-74
2022/03/06 06:32:44;;;;;;;3.15;2.50;;;;;;;1.21;73.60;94498.13;5088826;28;20039;-73
2022/03/06 06:35:10;;;;;;;3.33;2.75;;;;;;;1.20;74.11;94496.50;5093277;28;20024;-74
2022/03/06 06:37:35;;;;;;;3.30;2.45;;;;;;;1.17;75.22;94486.41;5092564;28;20028;-73
2022/03/06 06:40:01;;;;;;;6.30;4.55;;;;;;;1.21;75.21;94494.75;5074251;28;20084;-73
2022/03/06 06:42:26;;;;;;;7.38;4.78;;;;;;;1.21;74.79;94498.13;5085012;28;20410;-74
2022/03/06 06:44:52;;;;;;;6.03;4.07;;;;;;;1.25;75.34;94504.75;5054893;28;20032;-74
2022/03/06 06:47:17;;;;;;;4.55;3.25;;;;;;;1.27;74.98;94502.94;5072102;28;20494;-73
2022/03/06 06:49:42;;;;;;;3.78;2.90;;;;;;;0.98;75.03;94503.59;5073671;28;20040;-73
2022/03/06 06:52:08;;;;;;;3.30;2.30;;;;;;;0.97;73.16;94504.50;5074934;28;20029;-74
2022/03/06 06:54:33;;;;;;;2.75;1.98;;;;;;;0.97;72.71;94505.31;5091274;28;20035;-74
2022/03/06 06:56:59;;;;;;;2.90;1.95;;;;;;;0.98;73.25;94507.00;5080773;28;20517;-74
2022/03/06 06:59:24;;;;;;;3.17;2.20;;;;;;;1.04;73.74;94511.78;5069032;28;20033;-73
2022/03/06 07:01:49;;;;;;;2.95;2.17;;;;;;;1.06;74.55;94510.00;5077027;28;20051;-74
2022/03/06 07:04:17;;;;;;;5.10;2.47;;;;;;;0.95;75.35;94486.69;5090150;28;20012;-74
2022/03/06 07:06:42;;;;;;;4.47;3.42;;;;;;;0.98;76.15;94504.44;5073698;28;20047;-74
2022/03/06 07:09:08;;;;;;;3.67;2.70;;;;;;;1.02;75.60;94507.66;5054016;28;20029;-74
2022/03/06 07:11:33;;;;;;;14.30;7.20;;;;;;;1.03;75.45;94509.28;5072389;28;20036;-73
2022/03/06 07:13:59;;;;;;;9.52;5.68;;;;;;;1.05;75.40;94499.81;5069865;28;20503;-73
2022/03/06 07:16:24;;;;;;;14.70;7.80;;;;;;;1.13;75.60;94510.50;5070329;28;20062;-74
2022/03/06 07:18:49;;;;;;;12.88;6.95;;;;;;;1.14;76.22;94506.19;5037894;28;20039;-73
2022/03/06 07:21:15;;;;;;;16.08;7.90;;;;;;;1.15;75.85;94498.47;5072142;28;20043;-73
2022/03/06 07:23:40;;;;;;;38.80;16.83;;;;;;;1.19;75.71;94505.06;5074340;28;20074;-73
2022/03/06 07:26:06;;;;;;;46.08;20.75;;;;;;;1.19;76.13;94505.06;5092229;28;20055;-74
2022/03/06 07:28:31;;;;;;;26.50;13.90;;;;;;;1.27;75.94;94502.94;5091271;28;20490;-74
2022/03/06 07:30:57;;;;;;;15.52;9.30;;;;;;;1.30;76.29;94496.84;5089927;28;20035;-74
2022/03/06 07:33:22;;;;;;;13.55;9.38;;;;;;;1.31;75.86;94494.22;5069969;28;20036;-73
2022/03/06 07:35:48;;;;;;;18.27;11.30;;;;;;;1.32;75.81;94495.03;5072239;28;20033;-74
2022/03/06 07:38:13;;;;;;;21.58;14.95;;;;;;;1.28;76.07;94488.41;5089289;28;20082;-74
2022/03/06 07:40:38;;;;;;;19.40;12.90;;;;;;;1.24;75.04;94487.75;5070810;28;20414;-74
2022/03/06 07:43:04;;;;;;;16.45;11.80;;;;;;;1.23;75.93;94486.09;5090070;28;20032;-74
2022/03/06 07:45:29;;;;;;;21.20;14.82;;;;;;;1.29;75.66;94495.19;5091297;28;20078;-74
2022/03/06 07:47:56;;;;;;;22.77;14.35;;;;;;;1.36;75.82;94498.25;5088316;28;20040;-73
2022/03/06 07:50:21;;;;;;;29.67;20.63;;;;;;;1.33;75.84;94496.66;5091519;28;20077;-74
2022/03/06 07:52:47;;;;;;;27.35;16.83;;;;;;;1.25;75.23;94501.34;5053744;28;20040;-73
2022/03/06 07:55:12;;;;;;;7.95;5.40;;;;;;;1.31;74.34;94519.81;5070879;28;20415;-71
2022/03/06 07:57:38;;;;;;;4.47;2.90;;;;;;;1.30;71.98;94507.91;5053640;28;20042;-71
2022/03/06 08:00:10;;;;;;;5.07;3.75;;;;;;;1.30;72.37;94509.63;5072440;28;20024;-72
2022/03/06 08:02:36;;;;;;;10.13;7.65;;;;;;;1.36;72.78;94505.94;5077241;28;20028;-72
2022/03/06 08:05:01;;;;;;;18.05;15.32;;;;;;;1.36;73.57;94506.75;5086030;28;20066;-72
2022/03/06 08:07:26;;;;;;;16.55;10.50;;;;;;;1.37;74.41;94508.44;5064958;28;20032;-71
2022/03/06 08:09:52;;;;;;;17.50;9.88;;;;;;;1.37;74.60;94505.03;5069655;28;20498;-72
2022/03/06 08:12:21;;;;;;;13.73;9.40;;;;;;;1.32;74.67;94503.53;5070712;28;20030;-73
2022/03/06 08:14:48;;;;;;;14.23;8.95;;;;;;;1.24;75.23;94500.53;5073359;28;20033;-73
2022/03/06 08:17:13;;;;;;;14.80;9.00;;;;;;;1.25;75.61;94514.97;5089971;28;20111;-72
2022/03/06 08:19:39;;;;;;;15.77;9.48;;;;;;;1.27;75.40;94517.47;5087606;28;20043;-72
2022/03/06 08:22:04;;;;;;;13.60;8.35;;;;;;;1.25;75.84;94519.28;5090358;28;20187;-72
2022/03/06 08:24:31;;;;;;;16.80;9.25;;;;;;;1.28;75.68;94514.84;5073705;28;20558;-74
2022/03/06 08:26:56;;;;;;;9.20;5.72;;;;;;;1.00;72.98;94514.56;5069442;28;20033;-73
2022/03/06 08:29:21;;;;;;;7.82;5.60;;;;;;;1.10;72.51;94510.66;5053542;28;20471;-71
2022/03/06 08:31:47;;;;;;;4.80;3.20;;;;;;;1.05;72.98;94505.75;5070312;28;20325;-72
2022/03/06 08:34:12;;;;;;;4.65;3.63;;;;;;;1.09;72.64;94504.72;5071358;28;20036;-72
2022/03/06 08:36:38;;;;;;;10.25;5.18;;;;;;;1.10;73.99;94500.41;5069557;28;20040;-72
2022/03/06 08:39:03;;;;;;;17.30;11.23;;;;;;;1.11;74.70;94494.38;5080985;28;20052;-72
2022/03/06 08:41:29;;;;;;;10.05;7.80;;;;;;;1.23;75.14;94500.63;5052691;28;20474;-72
2022/03/06 08:43:54;;;;;;;18.35;14.40;;;;;;;1.26;73.96;94505.59;5076916;28;20028;-72
2022/03/06 08:46:19;;;;;;;17.20;12.80;;;;;;;1.33;73.33;94505.16;5085104;28;20031;-72
2022/03/06 08:48:45;;;;;;;14.18;9.50;;;;;;;1.35;73.09;94507.66;5090803;28;20456;-72
2022/03/06 08:51:10;;;;;;;13.23;9.65;;;;;;;1.38;73.25;94509.25;5088665;28;20032;-71
2022/03/06 08:53:36;;;;;;;12.32;8.32;;;;;;;1.42;74.13;94501.34;5066299;28;20036;-72
2022/03/06 08:56:01;;;;;;;14.13;10.35;;;;;;;1.44;74.54;94511.47;5070215;28;20025;-72
2022/03/06 08:58:27;;;;;;;10.50;8.20;;;;;;;1.43;74.87;94508.09;5069614;28;20482;-72
2022/03/06 09:00:52;;;;;;;10.63;7.88;;;;;;;1.45;74.34;94500.31;5052173;28;20028;-72
2022/03/06 09:03:18;;;;;;;49.85;22.33;;;;;;;1.50;74.25;94503.47;5068993;28;20028;-72
2022/03/06 09:05:43;;;;;;;44.85;21.65;;;;;;;1.54;74.26;94500.69;5072477;28;20020;-72
2022/03/06 09:08:09;;;;;;;29.45;15.02;;;;;;;1.58;73.94;94495.41;5086078;28;20047;-72
2022/03/06 09:10:39;;;;;;;24.17;13.48;;;;;;;1.61;74.02;94485.81;5072055;28;20028;-72
2022/03/06 09:13:05;;;;;;;27.75;19.92;;;;;;;1.49;74.05;94484.72;5089666;28;20117;-72
2022/03/06 09:15:30;;;;;;;24.98;18.30;;;;;;;1.63;74.05;94496.81;5088295;28;20469;-72
2022/03/06 09:17:56;;;;;;;24.33;16.58;;;;;;;1.66;74.27;94504.31;5089503;28;20036;-72
2022/03/06 09:20:21;;;;;;;18.05;12.95;;;;;;;1.70;74.61;94498.16;5090287;28;20452;-72
2022/03/06 09:22:46;;;;;;;12.82;9.50;;;;;;;1.66;72.92;94495.81;5073000;28;20521;-72
2022/03/06 09:25:12;;;;;;;12.73;8.63;;;;;;;1.74;72.75;94503.94;5067598;28;20021;-72
2022/03/06 09:27:38;;;;;;;9.75;7.40;;;;;;;1.79;72.99;94504.50;5076790;28;20035;-71
2022/03/06 09:30:04;;;;;;;14.75;10.50;;;;;;;1.69;73.24;94509.28;5089190;28;20031;-72
2022/03/06 09:32:30;;;;;;;16.45;10.88;;;;;;;1.66;73.60;94495.81;5090295;28;20024;-72
2022/03/06 09:34:55;;;;;;;22.30;11.48;;;;;;;1.60;73.05;94496.16;5072291;28;20027;-72
2022/03/06 09:37:20;;;;;;;6.32;4.82;;;;;;;1.56;70.17;94498.88;5086550;28;20032;-72
2022/03/06 09:39:46;;;;;;;7.97;4.97;;;;;;;1.36;71.32;94495.69;5088858;28;20101;-72
2022/03/06 09:42:11;;;;;;;6.22;4.78;;;;;;;1.36;72.05;94503.38;5069540;28;20036;-72
2022/03/06 09:44:37;;;;;;;6.00;4.20;;;;;;;1.28;71.25;94504.59;5054597;28;20097;-72
2022/03/06 09:47:04;;;;;;;4.40;3.22;;;;;;;1.24;69.79;94515.88;5063347;28;20024;-72
2022/03/06 09:49:30;;;;;;;5.45;4.00;;;;;;;1.10;71.84;94528.56;5079981;28;20040;-72
2022/03/06 09:51:56;;;;;;;4.75;3.55;;;;;;;0.86;70.45;94513.56;5089631;28;20023;-72
2022/03/06 09:54:22;;;;;;;5.38;3.63;;;;;;;0.83;72.38;94523.91;5068798;28;20416;-72
2022/03/06 09:56:47;;;;;;;4.50;3.47;;;;;;;0.80;72.85;94511.28;5067020;28;20024;-72
2022/03/06 09:59:12;;;;;;;3.58;2.90;;;;;;;0.87;72.02;94522.88;5066840;28;20028;-72
2022/03/06 10:01:38;;;;;;;4.63;3.67;;;;;;;0.75;71.55;94518.34;5069493;28;20035;-72
2022/03/06 10:04:26;;;;;;;5.15;4.28;;;;;;;0.73;70.95;94517.63;5051996;28;20032;-72
2022/03/06 10:07:04;;;;;;;6.53;4.93;;;;;;;0.79;72.40;94526.72;5053010;28;20032;-73
2022/03/06 10:09:31;;;;;;;6.75;4.53;;;;;;;0.66;72.34;94531.59;5074108;28;20539;-73
2022/03/06 10:11:56;;;;;;;6.00;5.10;;;;;;;0.65;71.22;94515.41;5071929;28;20033;-73
2022/03/06 10:14:39;;;;;;;7.30;5.47;;;;;;;0.56;72.48;94520.16;5070824;28;20489;-72
2022/03/06 10:17:12;;;;;;;6.53;5.38;;;;;;;0.56;73.32;94530.41;5077629;28;20418;-72
2022/03/06 10:19:57;;;;;;;6.53;5.07;;;;;;;0.62;73.14;94535.22;5061701;28;20045;-73
2022/03/06 10:22:27;;;;;;;7.00;5.28;;;;;;;0.73;73.33;94529.56;5074636;28;20059;-73
2022/03/06 10:24:57;;;;;;;7.53;5.72;;;;;;;0.76;73.08;94526.88;5075791;28;20063;-73
2022/03/06 10:27:54;;;;;;;6.30;5.30;;;;;;;0.77;71.45;94529.31;5092014;28;20567;-73
2022/03/06 10:30:30;;;;;;;5.55;4.25;;;;;;;0.69;70.81;94505.88;5072708;28;20024;-73
2022/03/06 10:32:58;;;;;;;5.43;4.75;;;;;;;0.80;71.13;94501.03;5075036;28;20035;-73
2022/03/06 10:35:39;;;;;;;7.03;5.60;;;;;;;0.88;72.60;94514.28;5075394;28;20028;-72
2022/03/06 10:38:30;;;;;;;7.22;5.45;;;;;;;0.93;71.89;94510.69;5091573;28;20032;-73
2022/03/06 10:40:56;;;;;;;7.78;5.32;;;;;;;1.01;72.59;94516.25;5092862;28;20055;-73
2022/03/06 10:43:22;;;;;;;6.80;5.32;;;;;;;1.07;73.36;94513.38;5058890;28;20047;-73
2022/03/06 10:45:48;;;;;;;7.10;5.60;;;;;;;1.14;74.13;94512.13;5091143;28;20159;-73
2022/03/06 10:48:13;;;;;;;7.20;5.47;;;;;;;1.09;73.72;94493.66;5090943;28;20414;-73
2022/03/06 10:50:39;;;;;;;6.18;4.53;;;;;;;1.14;73.61;94495.97;5066219;28;20497;-73
2022/03/06 10:53:19;;;;;;;5.20;4.35;;;;;;;1.19;71.75;94505.06;5085487;28;20036;-73
2022/03/06 10:55:45;;;;;;;3.87;2.93;;;;;;;1.06;70.95;94501.50;5072412;28;20111;-73
2022/03/06 10:58:10;;;;;;;5.15;3.20;;;;;;;1.11;71.63;94512.28;5072487;28;20360;-73
2022/03/06 11:00:36;;;;;;;3.97;2.83;;;;;;;1.18;71.70;94497.47;5071723;28;20020;-73
2022/03/06 11:03:04;;;;;;;3.92;3.10;;;;;;;1.21;71.50;94493.03;5075500;28;20052;-72
2022/03/06 11:05:30;;;;;;;5.10;3.90;;;;;;;1.30;71.79;94489.16;5075598;28;20036;-73
2022/03/06 11:07:55;;;;;;;5.63;4.18;;;;;;;1.39;72.10;94490.41;5093509;28;20402;-73
2022/03/06 11:10:21;;;;;;;9.38;7.60;;;;;;;1.32;71.91;94480.50;5075376;28;20040;-73
2022/03/06 11:12:47;;;;;;;13.75;10.57;;;;;;;1.43;72.10;94495.31;5058867;28;20046;-72
2022/03/06 11:15:12;;;;;;;7.90;6.47;;;;;;;1.52;72.63;94507.59;5066726;28;20028;-72
2022/03/06 11:17:38;;;;;;;9.32;5.80;;;;;;;1.53;73.05;94509.28;5071544;28;20036;-72
2022/03/06 11:20:03;;;;;;;10.43;7.75;;;;;;;1.48;72.70;94506.13;5071005;28;20025;-73
2022/03/06 11:22:51;;;;;;;12.55;9.45;;;;;;;1.33;72.08;94502.63;5073200;28;20033;-73
2022/03/06 11:25:20;;;;;;;6.97;5.55;;;;;;;1.33;71.96;94501.78;5071793;28;20024;-73
2022/03/06 11:28:28;;;;;;;6.70;5.10;;;;;;;1.33;71.87;94501.78;5071670;28;20035;-73
2022/03/06 11:30:58;;;;;;;6.53;5.10;;;;;;;1.36;70.91;94506.75;5062481;28;20057;-72
2022/03/06 11:33:23;;;;;;;4.90;3.92;;;;;;;1.19;72.03;94510.19;5071787;28;20241;-73